createdAt,value
2022-08-03T00:02:20.446Z,76.38
2022-08-03T00:04:50.265Z,76.65
2022-08-03T00:07:18.905Z,76.64
2022-08-03T00:09:47.201Z,76.31
2022-08-03T00:12:15.743Z,76.20
2022-08-03T00:14:44.207Z,76.29
2022-08-03T00:17:12.509Z,76.21
2022-08-03T00:19:40.804Z,76.27
2022-08-03T00:22:10.479Z,76.14
2022-08-03T00:24:38.736Z,76.10
2022-08-03T00:27:07.022Z,76.23
2022-08-03T00:29:57.332Z,76.13
2022-08-03T00:32:24.156Z,76.63
2022-08-03T00:34:58.890Z,76.52
2022-08-03T00:37:40.589Z,76.57
2022-08-03T00:40:13.455Z,76.91
2022-08-03T00:42:54.628Z,76.76
2022-08-03T00:45:25.525Z,76.69
2022-08-03T00:47:54.934Z,76.82
2022-08-03T00:50:25.354Z,77.15
2022-08-03T00:52:57.372Z,76.96
2022-08-03T00:55:26.516Z,77.23
2022-08-03T00:57:55.174Z,77.22
2022-08-03T01:00:26.923Z,77.45
2022-08-03T01:02:55.732Z,77.34
2022-08-03T01:05:24.457Z,77.50
2022-08-03T01:08:05.967Z,77.68
2022-08-03T01:10:42.872Z,77.70
2022-08-03T01:14:01.290Z,77.89
2022-08-03T01:16:35.848Z,77.79
2022-08-03T01:19:35.843Z,77.99
2022-08-03T01:22:24.455Z,78.05
2022-08-03T01:25:03.964Z,78.11
2022-08-03T01:27:49.331Z,77.91
2022-08-03T01:30:19.669Z,78.38
2022-08-03T01:33:01.157Z,78.23
2022-08-03T01:35:38.404Z,78.29
2022-08-03T01:38:12.637Z,78.34
2022-08-03T01:40:44.507Z,78.14
2022-08-03T01:44:27.144Z,78.43
2022-08-03T01:46:08.783Z,78.41
2022-08-03T01:48:39.229Z,78.58
2022-08-03T01:51:09.126Z,78.47
2022-08-03T01:53:38.956Z,78.50
2022-08-03T01:56:08.660Z,78.31
2022-08-03T01:58:38.130Z,78.63
2022-08-03T02:01:09.852Z,78.53
2022-08-03T02:03:59.485Z,78.55
2022-08-03T02:06:59.778Z,78.79
2022-08-03T02:09:23.268Z,78.57
2022-08-03T02:11:54.252Z,78.55
2022-08-03T02:14:23.828Z,78.64
2022-08-03T02:16:54.245Z,78.40
2022-08-03T02:19:24.377Z,78.66
2022-08-03T02:21:57.408Z,78.70
2022-08-03T02:24:30.412Z,78.88
2022-08-03T02:27:01.292Z,78.85
2022-08-03T02:29:39.457Z,78.69
2022-08-03T02:32:13.666Z,78.64
2022-08-03T02:34:46.242Z,78.60
2022-08-03T02:37:16.082Z,78.44
2022-08-03T02:39:46.295Z,78.14
2022-08-03T02:42:17.748Z,77.86
2022-08-03T02:44:52.023Z,77.67
2022-08-03T02:47:22.989Z,77.28
2022-08-03T02:49:54.552Z,77.33
2022-08-03T02:52:27.723Z,76.93
2022-08-03T02:55:00.993Z,76.97
2022-08-03T02:57:32.600Z,76.53
2022-08-03T03:00:02.680Z,76.42
2022-08-03T03:02:33.234Z,76.40
2022-08-03T03:05:55.137Z,76.08
2022-08-03T03:07:52.947Z,76.13
2022-08-03T03:10:23.309Z,75.66
2022-08-03T03:12:56.311Z,75.73
2022-08-03T03:15:26.797Z,75.82
2022-08-03T03:17:57.397Z,75.38
2022-08-03T03:20:29.826Z,75.41
2022-08-03T03:23:01.397Z,75.17
2022-08-03T03:25:32.562Z,75.25
2022-08-03T03:28:01.648Z,75.14
2022-08-03T03:30:30.980Z,75.03
2022-08-03T03:33:00.837Z,74.72
2022-08-03T03:35:29.693Z,74.65
2022-08-03T03:37:58.653Z,74.93
2022-08-03T03:40:27.801Z,74.68
2022-08-03T03:42:56.176Z,74.52
2022-08-03T03:45:25.682Z,74.72
2022-08-03T03:47:54.166Z,74.44
2022-08-03T03:50:25.026Z,74.48
2022-08-03T03:52:53.377Z,74.58
2022-08-03T03:55:21.648Z,74.80
2022-08-03T03:57:49.918Z,74.75
2022-08-03T04:00:20.212Z,74.52
2022-08-03T04:02:48.986Z,74.60
2022-08-03T04:05:35.145Z,74.74
2022-08-03T04:08:25.627Z,74.81
2022-08-03T04:11:06.016Z,74.51
2022-08-03T04:13:39.724Z,74.61
2022-08-03T04:16:13.300Z,74.69
2022-08-03T04:18:47.807Z,74.87
2022-08-03T04:21:20.611Z,74.91
2022-08-03T04:23:56.067Z,74.84
2022-08-03T04:26:26.518Z,74.59
2022-08-03T04:28:56.559Z,74.76
2022-08-03T04:31:27.190Z,74.60
2022-08-03T04:33:56.491Z,74.70
2022-08-03T04:36:28.698Z,74.41
2022-08-03T04:39:07.761Z,74.21
2022-08-03T04:42:07.452Z,73.96
2022-08-03T04:44:28.172Z,73.83
2022-08-03T04:46:59.029Z,73.93
2022-08-03T04:49:28.236Z,73.57
2022-08-03T04:51:56.829Z,73.29
2022-08-03T04:54:26.533Z,73.42
2022-08-03T04:56:54.782Z,73.11
2022-08-03T04:59:23.063Z,72.81
2022-08-03T05:01:51.372Z,72.79
2022-08-03T05:04:20.561Z,72.61
2022-08-03T05:06:55.043Z,72.43
2022-08-03T05:09:45.118Z,72.50
2022-08-03T05:12:14.039Z,72.54
2022-08-03T05:14:42.481Z,72.38
2022-08-03T05:17:10.847Z,72.43
2022-08-03T05:19:39.153Z,72.45
2022-08-03T05:22:07.462Z,72.41
2022-08-03T05:24:37.112Z,72.62
2022-08-03T05:27:05.505Z,72.79
2022-08-03T05:29:33.774Z,72.62
2022-08-03T05:32:08.062Z,72.42
2022-08-03T05:34:36.655Z,71.76
2022-08-03T05:37:05.055Z,71.35
2022-08-03T05:39:33.350Z,70.84
2022-08-03T05:42:03.143Z,70.32
2022-08-03T05:44:31.772Z,69.66
2022-08-03T05:47:00.301Z,69.37
2022-08-03T05:49:28.655Z,69.09
2022-08-03T05:52:00.034Z,68.71
2022-08-03T05:54:55.856Z,68.44
2022-08-03T05:57:27.402Z,68.28
2022-08-03T05:59:58.528Z,67.81
2022-08-03T06:02:28.048Z,67.57
2022-08-03T06:04:56.494Z,67.15
2022-08-03T06:07:24.840Z,67.04
2022-08-03T06:10:37.354Z,66.71
2022-08-03T06:12:43.104Z,66.64
2022-08-03T06:15:12.048Z,66.38
2022-08-03T06:17:50.526Z,66.18
2022-08-03T06:20:21.057Z,65.87
2022-08-03T06:22:50.806Z,65.66
2022-08-03T06:25:21.147Z,65.34
2022-08-03T06:27:51.128Z,65.23
2022-08-03T06:30:21.381Z,64.80
2022-08-03T06:32:52.086Z,64.40
2022-08-03T06:35:20.956Z,63.88
2022-08-03T06:37:51.682Z,63.66
2022-08-03T06:40:28.514Z,63.42
2022-08-03T06:42:58.651Z,63.55
2022-08-03T06:45:31.670Z,63.07
2022-08-03T06:48:05.638Z,62.89
2022-08-03T06:50:34.614Z,62.58
2022-08-03T06:53:03.420Z,62.49
2022-08-03T06:55:32.274Z,62.17
2022-08-03T06:58:03.627Z,61.89
2022-08-03T07:00:32.649Z,61.49
2022-08-03T07:03:00.970Z,61.07
2022-08-03T07:05:30.508Z,60.88
2022-08-03T07:07:59.254Z,60.68
2022-08-03T07:10:27.712Z,60.24
2022-08-03T07:12:56.987Z,59.67
2022-08-03T07:15:55.403Z,59.46
2022-08-03T07:18:15.201Z,58.76
2022-08-03T07:20:43.598Z,58.69
2022-08-03T07:23:18.818Z,58.07
2022-08-03T07:25:47.885Z,58.05
2022-08-03T07:28:16.372Z,57.67
2022-08-03T07:30:46.009Z,56.98
2022-08-03T07:33:15.204Z,56.81
2022-08-03T07:35:43.716Z,56.43
2022-08-03T07:38:12.043Z,56.30
2022-08-03T07:40:45.746Z,55.79
2022-08-03T07:43:14.569Z,55.10
2022-08-03T07:45:42.895Z,55.47
2022-08-03T07:48:12.820Z,54.75
2022-08-03T07:50:41.907Z,54.13
2022-08-03T07:53:10.218Z,54.04
2022-08-03T07:55:38.614Z,53.64
2022-08-03T07:58:12.198Z,53.13
2022-08-03T08:00:40.893Z,52.65
2022-08-03T08:03:10.072Z,52.11
2022-08-03T08:05:39.811Z,52.09
2022-08-03T08:08:08.812Z,51.58
2022-08-03T08:10:37.633Z,51.21
2022-08-03T08:13:06.036Z,51.09
2022-08-03T08:15:34.367Z,50.51
2022-08-03T08:18:03.572Z,50.10
2022-08-03T08:20:37.998Z,49.85
2022-08-03T08:23:20.856Z,49.52
2022-08-03T08:25:58.482Z,49.81
2022-08-03T08:28:32.303Z,49.14
2022-08-03T08:31:01.795Z,48.86
2022-08-03T08:33:48.026Z,48.83
2022-08-03T08:36:18.696Z,48.74
2022-08-03T08:38:48.585Z,48.60
2022-08-03T08:41:17.679Z,48.51
2022-08-03T08:43:46.063Z,48.57
2022-08-03T08:46:22.980Z,47.94
2022-08-03T08:48:54.080Z,48.25
2022-08-03T08:51:23.707Z,48.15
2022-08-03T08:54:13.998Z,47.63
2022-08-03T08:56:43.287Z,47.82
2022-08-03T08:59:11.783Z,47.87
2022-08-03T09:01:40.108Z,47.42
2022-08-03T09:04:09.503Z,47.70
2022-08-03T09:06:37.834Z,47.40
2022-08-03T09:09:08.275Z,47.70
2022-08-03T09:11:57.652Z,47.38
2022-08-03T09:14:36.917Z,47.47
2022-08-03T09:17:10.115Z,47.32
2022-08-03T09:20:09.181Z,47.11
2022-08-03T09:22:52.274Z,47.15
2022-08-03T09:25:25.103Z,47.41
2022-08-03T09:27:54.896Z,47.34
2022-08-03T09:30:33.781Z,46.64
2022-08-03T09:33:04.106Z,46.56
2022-08-03T09:35:54.519Z,46.58
2022-08-03T09:38:26.263Z,46.47
2022-08-03T09:40:59.510Z,46.69
2022-08-03T09:43:46.685Z,46.34
2022-08-03T09:46:15.053Z,46.77
2022-08-03T09:48:43.320Z,46.53
2022-08-03T09:51:33.129Z,46.17
2022-08-03T09:54:05.557Z,46.13
2022-08-03T09:56:45.138Z,46.08
2022-08-03T09:59:24.302Z,45.91
2022-08-03T10:01:54.940Z,45.81
2022-08-03T10:04:25.698Z,45.57
2022-08-03T10:07:07.299Z,45.63
2022-08-03T10:09:35.877Z,45.54
2022-08-03T10:12:12.895Z,45.30
2022-08-03T10:14:45.378Z,45.00
2022-08-03T10:17:14.128Z,45.06
2022-08-03T10:19:42.515Z,45.00
2022-08-03T10:22:15.794Z,45.31
2022-08-03T10:24:54.143Z,44.75
2022-08-03T10:27:24.818Z,44.39
2022-08-03T10:29:59.083Z,44.46
2022-08-03T10:32:35.322Z,44.23
2022-08-03T10:35:19.075Z,44.60
2022-08-03T10:37:57.302Z,44.36
2022-08-03T10:43:22.981Z,44.69
2022-08-03T10:45:53.066Z,43.92
2022-08-03T10:48:21.765Z,44.30
2022-08-03T10:50:51.678Z,44.14
2022-08-03T10:53:37.519Z,43.76
2022-08-03T10:56:28.626Z,44.28
2022-08-03T10:59:12.441Z,44.00
2022-08-03T11:01:58.868Z,43.87
2022-08-03T11:04:29.960Z,43.98
2022-08-03T11:07:22.890Z,44.15
2022-08-03T11:09:53.539Z,43.96
2022-08-03T11:12:29.851Z,43.81
2022-08-03T11:15:03.000Z,43.96
2022-08-03T11:17:33.781Z,44.04
2022-08-03T11:20:15.457Z,44.22
2022-08-03T11:22:54.388Z,43.49
2022-08-03T11:25:53.969Z,43.78
2022-08-03T11:28:30.524Z,43.25
2022-08-03T11:31:49.352Z,43.41
2022-08-03T11:34:19.702Z,43.13
2022-08-03T11:37:27.288Z,42.89
2022-08-03T11:39:58.408Z,43.04
2022-08-03T11:42:47.013Z,42.60
2022-08-03T11:45:16.236Z,42.25
2022-08-03T11:47:50.737Z,42.71
2022-08-03T11:50:21.672Z,42.93
2022-08-03T11:52:51.322Z,42.99
2022-08-03T11:55:22.055Z,42.40
2022-08-03T11:59:01.385Z,42.74
2022-08-03T12:00:40.604Z,43.15
2022-08-03T12:03:13.586Z,43.42
2022-08-03T12:05:51.667Z,43.20
2022-08-03T12:08:32.916Z,43.15
2022-08-03T12:11:05.737Z,43.55
2022-08-03T12:14:43.925Z,43.84
2022-08-03T12:16:31.716Z,43.44
2022-08-03T12:19:02.366Z,43.31
2022-08-03T12:21:33.179Z,42.79
2022-08-03T12:24:04.633Z,42.55
2022-08-03T12:26:56.790Z,41.72
2022-08-03T12:29:27.642Z,42.13
2022-08-03T12:31:56.435Z,41.74
2022-08-03T12:34:24.898Z,41.47
2022-08-03T12:37:01.017Z,41.74
2022-08-03T12:39:31.421Z,41.84
2022-08-03T12:41:59.981Z,41.96
2022-08-03T12:44:32.673Z,41.63
2022-08-03T12:47:01.996Z,41.32
2022-08-03T12:49:30.617Z,41.62
2022-08-03T12:52:05.489Z,41.69
2022-08-03T12:54:36.145Z,41.35
2022-08-03T12:57:06.746Z,41.17
2022-08-03T12:59:40.431Z,41.04
2022-08-03T13:02:17.695Z,41.23
2022-08-03T13:04:47.426Z,40.87
2022-08-03T13:07:19.555Z,40.91
2022-08-03T13:09:50.457Z,40.76
2022-08-03T13:12:21.282Z,40.27
2022-08-03T13:14:52.260Z,40.45
2022-08-03T13:17:20.923Z,40.36
2022-08-03T13:19:51.376Z,40.34
2022-08-03T13:22:22.788Z,40.63
2022-08-03T13:24:53.133Z,40.75
2022-08-03T13:28:01.091Z,40.71
2022-08-03T13:30:12.004Z,40.57
2022-08-03T13:32:40.900Z,40.64
2022-08-03T13:35:10.559Z,40.58
2022-08-03T13:37:40.277Z,40.45
2022-08-03T13:40:11.644Z,40.61
2022-08-03T13:42:39.932Z,41.05
2022-08-03T13:45:10.493Z,40.91
2022-08-03T13:47:38.854Z,41.04
2022-08-03T13:50:07.865Z,40.67
2022-08-03T13:52:37.493Z,40.91
2022-08-03T13:55:09.383Z,41.40
2022-08-03T13:58:04.731Z,41.51
2022-08-03T14:00:28.950Z,41.65
2022-08-03T14:03:15.365Z,42.08
2022-08-03T14:05:44.421Z,42.13
2022-08-03T14:08:13.621Z,42.57
2022-08-03T14:10:45.540Z,42.62
2022-08-03T14:13:18.021Z,42.75
2022-08-03T14:15:50.219Z,42.89
2022-08-03T14:18:28.925Z,43.19
2022-08-03T14:21:06.376Z,43.24
2022-08-03T14:23:35.576Z,43.24
2022-08-03T14:26:05.580Z,43.31
2022-08-03T14:28:33.952Z,43.81
2022-08-03T14:31:04.598Z,43.48
2022-08-03T14:33:36.993Z,43.55
2022-08-03T14:36:06.339Z,43.06
2022-08-03T14:38:34.836Z,43.53
2022-08-03T14:41:04.487Z,43.73
2022-08-03T14:43:33.772Z,43.55
2022-08-03T14:46:02.693Z,43.56
2022-08-03T14:50:33.284Z,43.94
2022-08-03T14:51:19.363Z,43.92
2022-08-03T14:53:47.664Z,44.07
2022-08-03T14:56:17.379Z,44.47
2022-08-03T14:58:45.766Z,44.63
2022-08-03T15:02:02.307Z,44.55
2022-08-03T15:04:02.326Z,44.83
2022-08-03T15:06:30.653Z,44.70
2022-08-03T15:09:23.695Z,44.59
2022-08-03T15:11:48.683Z,44.89
2022-08-03T15:14:16.992Z,45.15
2022-08-03T15:16:45.275Z,45.45
2022-08-03T15:20:00.466Z,45.67
2022-08-03T15:22:01.807Z,45.88
2022-08-03T15:24:30.491Z,46.17
2022-08-03T15:27:00.309Z,46.53
2022-08-03T15:30:07.398Z,46.67
2022-08-03T15:32:16.922Z,47.15
2022-08-03T15:34:50.054Z,47.61
2022-08-03T15:37:20.690Z,48.47
2022-08-03T15:39:59.689Z,48.36
2022-08-03T15:42:31.204Z,48.95
2022-08-03T15:44:59.556Z,49.02
2022-08-03T15:47:28.079Z,49.14
2022-08-03T15:49:56.600Z,49.29
2022-08-03T15:52:24.997Z,49.68
2022-08-03T15:54:53.362Z,49.54
2022-08-03T15:57:22.492Z,49.50
2022-08-03T15:59:52.998Z,49.62
2022-08-03T16:02:21.498Z,49.85
2022-08-03T16:04:49.891Z,50.64
2022-08-03T16:07:38.210Z,50.32
2022-08-03T16:10:07.667Z,50.76
2022-08-03T16:12:35.981Z,50.53
2022-08-03T16:15:06.715Z,51.04
2022-08-03T16:17:35.031Z,50.56
2022-08-03T16:20:07.487Z,51.04
2022-08-03T16:22:44.695Z,51.22
2022-08-03T16:25:16.097Z,50.89
2022-08-03T16:28:07.303Z,51.33
2022-08-03T16:30:35.779Z,51.44
2022-08-03T16:33:04.488Z,51.38
2022-08-03T16:35:32.908Z,51.12
2022-08-03T16:38:04.390Z,51.39
2022-08-03T16:40:35.054Z,51.79
2022-08-03T16:43:18.237Z,51.89
2022-08-03T16:45:48.622Z,52.11
2022-08-03T16:48:17.393Z,52.11
2022-08-03T16:50:45.980Z,51.91
2022-08-03T16:53:16.580Z,51.99
2022-08-03T16:55:52.333Z,52.16
2022-08-03T16:58:42.664Z,52.09
2022-08-03T17:01:22.530Z,52.10
2022-08-03T17:04:01.458Z,52.06
2022-08-03T17:06:34.408Z,52.09
2022-08-03T17:09:04.358Z,52.30
2022-08-03T17:11:44.047Z,52.54
2022-08-03T17:14:16.700Z,52.18
2022-08-03T17:16:52.119Z,52.27
2022-08-03T17:19:24.885Z,52.32
2022-08-03T17:22:03.944Z,52.73
2022-08-03T17:24:35.289Z,52.70
2022-08-03T17:28:51.302Z,52.85
2022-08-03T17:30:05.456Z,53.03
2022-08-03T17:32:42.885Z,53.25
2022-08-03T17:35:21.286Z,53.36
2022-08-03T17:37:58.597Z,53.70
2022-08-03T17:40:32.441Z,54.23
2022-08-03T17:44:13.736Z,54.44
2022-08-03T17:45:52.191Z,54.58
2022-08-03T17:48:25.067Z,54.58
2022-08-03T17:51:00.138Z,54.94
2022-08-03T17:53:33.498Z,54.97
2022-08-03T17:56:44.464Z,55.07
2022-08-03T17:59:15.479Z,55.48
2022-08-03T18:02:21.081Z,55.36
2022-08-03T18:05:16.708Z,55.45
2022-08-03T18:07:49.555Z,55.54
2022-08-03T18:10:28.342Z,56.04
2022-08-03T18:13:10.509Z,56.16
2022-08-03T18:15:47.235Z,56.18
2022-08-03T18:18:29.263Z,56.71
2022-08-03T18:21:09.342Z,56.68
2022-08-03T18:23:50.325Z,56.82
2022-08-03T18:26:20.111Z,57.23
2022-08-03T18:28:50.639Z,57.70
2022-08-03T18:31:59.813Z,57.75
2022-08-03T18:34:16.659Z,58.04
2022-08-03T18:36:50.584Z,58.40
2022-08-03T18:39:20.176Z,58.36
2022-08-03T18:41:49.015Z,58.67
2022-08-03T18:44:52.570Z,58.65
2022-08-03T18:47:50.666Z,59.00
2022-08-03T18:50:25.731Z,59.35
2022-08-03T18:53:16.151Z,59.34
2022-08-03T18:56:02.129Z,59.44
2022-08-03T18:58:38.921Z,59.64
2022-08-03T19:01:59.581Z,60.10
2022-08-03T19:04:12.484Z,60.09
2022-08-03T19:06:45.466Z,60.52
2022-08-03T19:09:28.393Z,60.85
2022-08-03T19:12:12.593Z,61.07
2022-08-03T19:14:57.503Z,61.45
2022-08-03T19:17:29.695Z,61.86
2022-08-03T19:19:59.683Z,61.95
2022-08-03T19:22:30.116Z,62.53
2022-08-03T19:25:02.577Z,62.70
2022-08-03T19:27:32.799Z,63.29
2022-08-03T19:30:05.830Z,63.32
2022-08-03T19:32:41.219Z,63.86
2022-08-03T19:35:19.088Z,64.03
2022-08-03T19:38:05.808Z,64.34
2022-08-03T19:40:40.236Z,64.62
2022-08-03T19:43:21.952Z,64.83
2022-08-03T19:46:06.103Z,65.20
2022-08-03T19:48:36.846Z,65.48
2022-08-03T19:51:12.331Z,65.84
2022-08-03T19:53:45.217Z,65.95
2022-08-03T19:56:16.599Z,66.40
2022-08-03T19:58:45.237Z,66.72
2022-08-03T20:01:23.205Z,66.87
2022-08-03T20:03:52.996Z,67.26
2022-08-03T20:06:24.438Z,67.58
2022-08-03T20:08:55.207Z,67.89
2022-08-03T20:11:28.668Z,68.06
2022-08-03T20:13:59.394Z,68.39
2022-08-03T20:16:27.955Z,68.62
2022-08-03T20:18:56.291Z,68.87
2022-08-03T20:21:28.635Z,69.08
2022-08-03T20:24:24.624Z,69.26
2022-08-03T20:26:57.793Z,69.42
2022-08-03T20:30:05.330Z,69.81
2022-08-03T20:32:24.832Z,69.79
2022-08-03T20:34:53.467Z,70.19
2022-08-03T20:37:21.777Z,70.33
2022-08-03T20:39:50.217Z,70.55
2022-08-03T20:42:21.454Z,70.87
2022-08-03T20:45:05.593Z,71.07
2022-08-03T20:47:36.622Z,71.35
2022-08-03T20:50:22.055Z,71.50
2022-08-03T20:52:51.207Z,71.63
2022-08-03T20:55:20.300Z,72.04
2022-08-03T20:58:10.533Z,72.20
2022-08-03T21:00:39.102Z,72.43
2022-08-03T21:03:09.032Z,72.66
2022-08-03T21:05:48.413Z,72.83
2022-08-03T21:08:23.526Z,73.00
2022-08-03T21:10:53.725Z,73.35
2022-08-03T21:13:31.148Z,73.49
2022-08-03T21:16:12.959Z,73.84
2022-08-03T21:18:49.357Z,73.92
2022-08-03T21:21:21.004Z,74.01
2022-08-03T21:23:52.548Z,74.37
2022-08-03T21:26:23.262Z,74.64
2022-08-03T21:28:55.144Z,74.83
2022-08-03T21:31:26.497Z,74.95
2022-08-03T21:33:58.264Z,75.01
2022-08-03T21:36:29.477Z,75.28
2022-08-03T21:38:58.667Z,75.45
2022-08-03T21:41:29.772Z,75.74
2022-08-03T21:43:59.934Z,76.02
2022-08-03T21:46:31.703Z,76.31
2022-08-03T21:50:04.558Z,76.33
2022-08-03T21:51:55.102Z,76.64
2022-08-03T21:54:31.372Z,76.86
2022-08-03T21:57:04.139Z,77.05
2022-08-03T21:59:38.769Z,77.25
2022-08-03T22:02:15.635Z,77.27
2022-08-03T22:04:55.481Z,77.66
2022-08-03T22:07:25.495Z,77.63
2022-08-03T22:09:55.313Z,77.84
2022-08-03T22:12:25.385Z,77.81
2022-08-03T22:15:00.171Z,78.01
2022-08-03T22:17:55.959Z,78.17
2022-08-03T22:20:19.254Z,78.20
2022-08-03T22:22:55.278Z,78.34
2022-08-03T22:25:29.969Z,78.21
2022-08-03T22:28:00.760Z,78.53
2022-08-03T22:30:31.650Z,78.55
2022-08-03T22:33:00.779Z,78.65
2022-08-03T22:35:32.313Z,79.02
2022-08-03T22:38:17.418Z,78.92
2022-08-03T22:40:48.059Z,79.19
2022-08-03T22:43:16.500Z,79.30
2022-08-03T22:46:09.921Z,79.27
2022-08-03T22:48:40.926Z,79.29
2022-08-03T22:51:10.659Z,79.34
2022-08-03T22:53:40.313Z,79.56
2022-08-03T22:56:08.810Z,79.65
2022-08-03T22:58:37.145Z,79.78
2022-08-03T23:01:09.942Z,79.87
2022-08-03T23:03:59.205Z,79.96
2022-08-03T23:06:36.009Z,80.06
2022-08-03T23:09:08.158Z,80.00
2022-08-03T23:11:40.872Z,80.06
2022-08-03T23:14:16.047Z,80.09
2022-08-03T23:16:48.181Z,80.16
2022-08-03T23:19:25.712Z,80.35
2022-08-03T23:22:02.381Z,80.45
2022-08-03T23:24:34.847Z,80.68
2022-08-03T23:27:05.766Z,80.70
2022-08-03T23:29:36.540Z,80.96
2022-08-03T23:32:07.946Z,80.70
2022-08-03T23:34:56.865Z,80.81
2022-08-03T23:37:27.006Z,80.82
2022-08-03T23:39:58.086Z,80.94
2022-08-03T23:42:27.297Z,81.43
2022-08-03T23:44:59.431Z,81.18
2022-08-03T23:47:46.292Z,81.25
2022-08-03T23:50:16.126Z,81.27
2022-08-03T23:52:57.425Z,81.33
2022-08-03T23:55:44.996Z,81.43
2022-08-03T23:58:27.429Z,81.54
